createdAt,value
2018-07-17T00:00:08.249Z,17.26
2018-07-17T00:02:36.329Z,17.18
2018-07-17T00:05:05.666Z,17.17
2018-07-17T00:07:33.731Z,17.15
2018-07-17T00:10:01.712Z,17.17
2018-07-17T00:12:29.845Z,17.23
2018-07-17T00:14:57.921Z,17.22
2018-07-17T00:17:26.005Z,17.20
2018-07-17T00:19:54.016Z,17.17
2018-07-17T00:22:22.124Z,17.11
2018-07-17T00:24:50.129Z,17.08
2018-07-17T00:27:18.185Z,17.05
2018-07-17T00:29:46.242Z,17.03
2018-07-17T00:32:14.424Z,16.97
2018-07-17T00:34:42.468Z,17.04
2018-07-17T00:37:10.623Z,17.02
2018-07-17T00:39:38.672Z,17.02
2018-07-17T00:42:06.665Z,16.96
2018-07-17T00:44:34.991Z,16.94
2018-07-17T00:47:03.187Z,16.95
2018-07-17T00:49:31.263Z,16.90
2018-07-17T00:51:59.400Z,16.93
2018-07-17T00:54:27.435Z,16.84
2018-07-17T00:56:55.437Z,16.76
2018-07-17T00:59:23.500Z,16.70
2018-07-17T01:01:57.124Z,16.67
2018-07-17T01:04:30.744Z,16.65
2018-07-17T01:07:04.332Z,16.61
2018-07-17T01:09:37.928Z,16.59
2018-07-17T01:12:11.510Z,16.66
2018-07-17T01:15:11.777Z,16.71
2018-07-17T01:17:39.855Z,16.65
2018-07-17T01:20:08.799Z,16.66
2018-07-17T01:22:36.834Z,16.75
2018-07-17T01:25:05.017Z,16.76
2018-07-17T01:27:33.218Z,16.72
2018-07-17T01:30:01.495Z,16.68
2018-07-17T01:32:29.519Z,16.68
2018-07-17T01:34:57.552Z,16.67
2018-07-17T01:37:25.534Z,16.65
2018-07-17T01:39:53.571Z,16.61
2018-07-17T01:42:21.616Z,16.55
2018-07-17T01:44:49.607Z,16.52
2018-07-17T01:47:17.758Z,16.50
2018-07-17T01:49:45.826Z,16.49
2018-07-17T01:52:14.039Z,16.47
2018-07-17T01:54:42.262Z,16.47
2018-07-17T01:57:10.389Z,16.46
2018-07-17T01:59:38.521Z,16.42
2018-07-17T02:02:06.842Z,16.36
2018-07-17T02:04:34.919Z,16.39
2018-07-17T02:07:02.949Z,16.35
2018-07-17T02:09:31.051Z,16.33
2018-07-17T02:11:59.097Z,16.31
2018-07-17T02:14:27.094Z,16.25
2018-07-17T02:16:55.284Z,16.18
2018-07-17T02:19:23.401Z,16.13
2018-07-17T02:21:51.397Z,16.11
2018-07-17T02:24:19.381Z,16.04
2018-07-17T02:26:47.498Z,16.03
2018-07-17T02:29:15.459Z,15.98
2018-07-17T02:31:43.526Z,15.99
2018-07-17T02:34:11.561Z,15.94
2018-07-17T02:36:39.584Z,15.94
2018-07-17T02:39:08.450Z,15.92
2018-07-17T02:41:36.576Z,15.88
2018-07-17T02:44:04.657Z,15.87
2018-07-17T02:46:32.697Z,15.79
2018-07-17T02:49:00.864Z,15.77
2018-07-17T02:51:28.945Z,15.76
2018-07-17T02:53:57.146Z,15.76
2018-07-17T02:56:25.323Z,15.81
2018-07-17T02:58:53.428Z,15.71
2018-07-17T03:01:21.430Z,15.64
2018-07-17T03:03:49.522Z,15.60
2018-07-17T03:06:17.607Z,15.58
2018-07-17T03:08:45.584Z,15.53
2018-07-17T03:11:13.699Z,15.51
2018-07-17T03:13:41.692Z,15.49
2018-07-17T03:16:09.819Z,15.50
2018-07-17T03:18:37.888Z,15.55
2018-07-17T03:21:05.904Z,15.57
2018-07-17T03:23:34.030Z,15.58
2018-07-17T03:26:02.079Z,15.66
2018-07-17T03:28:30.366Z,15.68
2018-07-17T03:30:58.559Z,15.78
2018-07-17T03:33:26.699Z,15.87
2018-07-17T03:35:54.690Z,16.07
2018-07-17T03:38:22.795Z,16.40
2018-07-17T03:40:50.886Z,17.47
2018-07-17T03:43:19.103Z,18.78
2018-07-17T03:45:47.187Z,19.75
2018-07-17T03:48:15.274Z,20.27
2018-07-17T03:50:43.405Z,19.68
2018-07-17T03:53:11.599Z,19.24
2018-07-17T03:55:39.759Z,19.84
2018-07-17T03:58:07.911Z,20.54
2018-07-17T04:00:35.962Z,20.73
2018-07-17T04:03:04.177Z,20.27
2018-07-17T04:05:32.272Z,20.66
2018-07-17T04:08:00.365Z,21.29
2018-07-17T04:10:28.582Z,21.51
2018-07-17T04:12:56.802Z,22.15
2018-07-17T04:15:24.930Z,22.91
2018-07-17T04:17:53.122Z,23.10
2018-07-17T04:20:21.259Z,23.03
2018-07-17T04:22:49.518Z,23.25
2018-07-17T04:25:17.790Z,23.26
2018-07-17T04:27:45.921Z,23.04
2018-07-17T04:30:14.092Z,21.75
2018-07-17T04:32:42.285Z,20.89
2018-07-17T04:35:10.519Z,20.72
2018-07-17T04:37:38.700Z,22.07
2018-07-17T04:40:06.995Z,22.67
2018-07-17T04:42:35.113Z,23.02
2018-07-17T04:45:03.475Z,23.45
2018-07-17T04:47:31.659Z,23.76
2018-07-17T04:49:59.798Z,24.03
2018-07-17T04:52:27.940Z,24.33
2018-07-17T04:54:56.289Z,24.28
2018-07-17T04:57:24.441Z,23.95
2018-07-17T04:59:52.520Z,23.85
2018-07-17T05:02:20.772Z,23.62
2018-07-17T05:04:49.019Z,23.63
2018-07-17T05:07:17.282Z,24.24
2018-07-17T05:09:45.899Z,24.72
2018-07-17T05:12:14.206Z,24.58
2018-07-17T05:14:42.615Z,24.42
2018-07-17T05:17:11.226Z,23.88
2018-07-17T05:19:39.427Z,23.93
2018-07-17T05:22:07.801Z,22.67
2018-07-17T05:24:36.159Z,21.97
2018-07-17T05:27:04.409Z,21.61
2018-07-17T05:29:32.560Z,21.22
2018-07-17T05:32:01.078Z,21.06
2018-07-17T05:34:29.343Z,20.84
2018-07-17T05:36:57.688Z,21.68
2018-07-17T05:39:26.440Z,22.22
2018-07-17T05:41:54.643Z,22.70
2018-07-17T05:44:22.925Z,23.77
2018-07-17T05:46:51.231Z,24.37
2018-07-17T05:49:19.748Z,24.96
2018-07-17T05:51:48.012Z,25.43
2018-07-17T05:54:16.387Z,26.32
2018-07-17T05:56:44.549Z,24.13
2018-07-17T05:59:12.872Z,23.25
2018-07-17T06:01:41.323Z,23.01
2018-07-17T06:04:09.657Z,22.78
2018-07-17T06:06:37.883Z,23.14
2018-07-17T06:09:08.564Z,23.36
2018-07-17T06:11:36.836Z,22.86
2018-07-17T06:14:05.053Z,22.69
2018-07-17T06:16:33.349Z,22.64
2018-07-17T06:19:02.064Z,22.59
2018-07-17T06:21:30.391Z,22.07
2018-07-17T06:23:58.766Z,21.91
2018-07-17T06:26:27.346Z,21.70
2018-07-17T06:28:56.273Z,21.48
2018-07-17T06:31:24.482Z,21.39
2018-07-17T06:33:53.917Z,21.42
2018-07-17T06:36:22.538Z,21.71
2018-07-17T06:38:51.479Z,21.93
2018-07-17T06:41:19.793Z,22.20
2018-07-17T06:43:48.048Z,22.22
2018-07-17T06:46:16.449Z,22.05
2018-07-17T06:48:44.755Z,22.41
2018-07-17T06:51:12.938Z,22.57
2018-07-17T06:53:41.105Z,22.50
2018-07-17T06:56:09.230Z,22.68
2018-07-17T06:58:37.458Z,22.55
2018-07-17T07:01:05.545Z,22.38
2018-07-17T07:03:34.080Z,22.29
2018-07-17T07:06:02.527Z,22.18
2018-07-17T07:08:30.703Z,21.98
2018-07-17T07:10:59.100Z,21.30
2018-07-17T07:13:27.466Z,20.54
2018-07-17T07:15:55.881Z,20.07
2018-07-17T07:18:23.995Z,19.88
2018-07-17T07:20:52.108Z,19.40
2018-07-17T07:23:20.495Z,19.31
2018-07-17T07:25:48.612Z,19.39
2018-07-17T07:28:16.721Z,19.53
2018-07-17T07:30:44.978Z,19.60
2018-07-17T07:33:13.185Z,19.57
2018-07-17T07:35:41.476Z,19.35
2018-07-17T07:38:09.898Z,19.28
2018-07-17T07:40:38.238Z,19.09
2018-07-17T07:43:06.778Z,18.88
2018-07-17T07:45:35.041Z,18.72
2018-07-17T07:48:03.391Z,18.57
2018-07-17T07:50:31.866Z,18.45
2018-07-17T07:53:02.241Z,18.62
2018-07-17T07:55:30.920Z,18.62
2018-07-17T07:57:59.397Z,18.61
2018-07-17T08:00:27.732Z,18.69
2018-07-17T08:02:56.893Z,18.79
2018-07-17T08:05:25.676Z,18.91
2018-07-17T08:07:54.007Z,19.00
2018-07-17T08:10:22.725Z,19.06
2018-07-17T08:12:51.493Z,19.18
2018-07-17T08:15:19.921Z,19.29
2018-07-17T08:17:48.381Z,19.24
2018-07-17T08:20:16.756Z,19.36
2018-07-17T08:22:44.977Z,19.35
2018-07-17T08:25:13.568Z,19.41
2018-07-17T08:27:46.437Z,19.50
2018-07-17T08:30:15.593Z,19.74
2018-07-17T08:32:43.940Z,20.12
2018-07-17T08:35:13.463Z,20.32
2018-07-17T08:37:54.823Z,20.39
2018-07-17T08:40:23.988Z,20.27
2018-07-17T08:42:52.420Z,20.32
2018-07-17T08:45:20.719Z,20.35
2018-07-17T08:47:48.853Z,20.56
2018-07-17T08:50:17.072Z,20.82
2018-07-17T08:52:45.218Z,21.05
2018-07-17T08:55:13.725Z,20.85
2018-07-17T08:57:41.992Z,20.85
2018-07-17T09:00:10.183Z,21.16
2018-07-17T09:02:38.665Z,21.54
2018-07-17T09:05:07.321Z,22.04
2018-07-17T09:07:35.544Z,22.48
2018-07-17T09:10:04.450Z,22.60
2018-07-17T09:12:32.796Z,22.34
2018-07-17T09:15:01.157Z,22.25
2018-07-17T09:17:29.588Z,21.98
2018-07-17T09:19:58.199Z,21.74
2018-07-17T09:22:26.700Z,21.16
2018-07-17T09:24:55.097Z,21.13
2018-07-17T09:27:23.536Z,21.01
2018-07-17T09:29:51.848Z,21.19
2018-07-17T09:32:20.131Z,21.55
2018-07-17T09:34:48.577Z,21.51
2018-07-17T09:37:16.754Z,21.77
2018-07-17T09:39:45.436Z,21.82
2018-07-17T09:42:14.088Z,22.02
2018-07-17T09:44:42.592Z,22.46
2018-07-17T09:47:11.238Z,22.80
2018-07-17T09:49:39.561Z,22.63
2018-07-17T09:52:07.968Z,22.38
2018-07-17T09:54:36.334Z,22.17
2018-07-17T09:57:04.616Z,21.74
2018-07-17T09:59:33.001Z,21.29
2018-07-17T10:02:06.755Z,21.11
2018-07-17T10:04:35.118Z,22.06
2018-07-17T10:07:03.365Z,21.88
2018-07-17T10:09:31.720Z,22.37
2018-07-17T10:11:59.935Z,22.45
2018-07-17T10:14:28.335Z,22.63
2018-07-17T10:16:56.715Z,22.58
2018-07-17T10:19:24.968Z,22.56
2018-07-17T10:21:53.282Z,22.70
2018-07-17T10:24:21.759Z,22.34
2018-07-17T10:26:50.016Z,22.10
2018-07-17T10:29:18.269Z,21.99
2018-07-17T10:31:46.426Z,21.81
2018-07-17T10:34:14.773Z,21.64
2018-07-17T10:36:43.014Z,21.63
2018-07-17T10:39:11.660Z,21.69
2018-07-17T10:41:39.943Z,21.58
2018-07-17T10:44:08.757Z,21.97
2018-07-17T10:46:37.131Z,22.25
2018-07-17T10:49:05.493Z,22.08
2018-07-17T10:51:33.739Z,22.19
2018-07-17T10:54:02.137Z,22.69
2018-07-17T10:56:30.534Z,22.76
2018-07-17T10:58:59.162Z,23.04
2018-07-17T11:01:27.467Z,23.21
2018-07-17T11:03:56.187Z,23.90
2018-07-17T11:06:24.513Z,24.54
2018-07-17T11:08:52.803Z,24.88
2018-07-17T11:11:21.812Z,24.61
2018-07-17T11:13:50.554Z,24.47
2018-07-17T11:16:20.293Z,24.11
2018-07-17T11:18:48.792Z,23.75
2018-07-17T11:21:17.411Z,24.08
2018-07-17T11:23:45.895Z,24.13
2018-07-17T11:26:14.542Z,24.01
2018-07-17T11:28:43.129Z,24.16
2018-07-17T11:31:13.571Z,24.21
2018-07-17T11:33:42.072Z,23.86
2018-07-17T11:36:10.539Z,24.18
2018-07-17T11:38:39.373Z,24.46
2018-07-17T11:41:08.090Z,24.46
2018-07-17T11:43:36.599Z,24.42
2018-07-17T11:46:04.983Z,23.90
2018-07-17T11:48:33.368Z,23.91
2018-07-17T11:51:01.949Z,24.01
2018-07-17T11:53:30.735Z,23.88
2018-07-17T11:55:59.151Z,24.07
2018-07-17T11:58:27.511Z,24.20
2018-07-17T12:00:56.132Z,24.27
2018-07-17T12:03:24.702Z,24.53
2018-07-17T12:05:53.027Z,24.45
2018-07-17T12:08:21.526Z,24.00
2018-07-17T12:10:49.972Z,23.91
2018-07-17T12:13:19.136Z,23.90
2018-07-17T12:15:47.720Z,23.54
2018-07-17T12:18:15.928Z,23.22
2018-07-17T12:20:44.404Z,23.32
2018-07-17T12:23:13.102Z,23.78
2018-07-17T12:25:41.838Z,23.85
2018-07-17T12:28:10.464Z,23.91
2018-07-17T12:30:40.615Z,23.99
2018-07-17T12:33:08.868Z,24.10
2018-07-17T12:35:37.070Z,23.76
2018-07-17T12:38:05.385Z,23.71
2018-07-17T12:40:36.847Z,23.38
2018-07-17T12:43:05.679Z,23.42
2018-07-17T12:45:33.978Z,23.40
2018-07-17T12:48:04.094Z,23.71
2018-07-17T12:50:33.901Z,24.09
2018-07-17T12:53:03.465Z,24.33
2018-07-17T12:55:31.754Z,24.12
2018-07-17T12:58:00.072Z,23.82
2018-07-17T13:00:28.395Z,24.14
2018-07-17T13:02:56.671Z,24.51
2018-07-17T13:05:25.212Z,24.30
2018-07-17T13:07:53.592Z,23.73
2018-07-17T13:10:21.756Z,23.23
2018-07-17T13:12:50.377Z,23.33
2018-07-17T13:15:18.527Z,23.30
2018-07-17T13:17:46.904Z,23.57
2018-07-17T13:20:15.054Z,23.72
2018-07-17T13:22:43.189Z,24.25
2018-07-17T13:25:11.415Z,24.36
2018-07-17T13:27:39.599Z,24.16
2018-07-17T13:30:08.120Z,24.44
2018-07-17T13:32:36.374Z,24.50
2018-07-17T13:35:04.542Z,24.53
2018-07-17T13:37:32.980Z,24.34
2018-07-17T13:40:01.238Z,24.07
2018-07-17T13:42:29.489Z,24.09
2018-07-17T13:44:57.690Z,24.35
2018-07-17T13:47:25.830Z,24.58
2018-07-17T13:49:54.178Z,24.82
2018-07-17T13:52:22.537Z,24.96
2018-07-17T13:54:50.676Z,25.06
2018-07-17T13:57:18.882Z,24.92
2018-07-17T13:59:47.092Z,24.73
2018-07-17T14:02:15.540Z,25.38
2018-07-17T14:04:43.805Z,25.32
2018-07-17T14:07:12.017Z,25.35
2018-07-17T14:09:40.256Z,25.46
2018-07-17T14:12:08.467Z,25.55
2018-07-17T14:14:36.648Z,25.67
2018-07-17T14:17:05.097Z,25.75
2018-07-17T14:19:33.267Z,25.86
2018-07-17T14:22:01.553Z,25.91
2018-07-17T14:24:29.797Z,26.06
2018-07-17T14:26:58.035Z,26.22
2018-07-17T14:29:26.251Z,26.53
2018-07-17T14:31:54.449Z,26.82
2018-07-17T14:34:22.564Z,26.84
2018-07-17T14:36:51.085Z,26.49
2018-07-17T14:39:19.746Z,26.16
2018-07-17T14:41:48.210Z,25.96
2018-07-17T14:44:16.570Z,26.12
2018-07-17T14:46:44.906Z,26.36
2018-07-17T14:49:13.292Z,26.14
2018-07-17T14:51:41.703Z,26.09
2018-07-17T14:54:09.919Z,26.13
2018-07-17T14:56:38.151Z,25.86
2018-07-17T14:59:06.868Z,25.83
2018-07-17T15:01:35.181Z,25.68
2018-07-17T15:04:03.447Z,25.56
2018-07-17T15:06:31.590Z,25.40
2018-07-17T15:08:59.742Z,25.49
2018-07-17T15:11:27.975Z,25.47
2018-07-17T15:13:56.097Z,25.48
2018-07-17T15:16:24.364Z,25.41
2018-07-17T15:18:52.617Z,25.06
2018-07-17T15:21:20.838Z,24.74
2018-07-17T15:23:49.393Z,24.59
2018-07-17T15:26:18.025Z,24.34
2018-07-17T15:28:46.391Z,24.28
2018-07-17T15:31:14.575Z,24.30
2018-07-17T15:33:42.719Z,24.12
2018-07-17T15:36:10.876Z,24.21
2018-07-17T15:38:39.198Z,24.47
2018-07-17T15:41:07.429Z,24.47
2018-07-17T15:43:35.715Z,24.48
2018-07-17T15:46:03.838Z,24.27
2018-07-17T15:48:32.155Z,24.30
2018-07-17T15:51:00.611Z,24.46
2018-07-17T15:53:28.863Z,24.47
2018-07-17T15:55:57.034Z,24.40
2018-07-17T15:58:25.151Z,24.04
2018-07-17T16:00:53.320Z,24.00
2018-07-17T16:03:21.689Z,23.75
2018-07-17T16:05:50.032Z,23.48
2018-07-17T16:08:18.247Z,23.21
2018-07-17T16:10:46.850Z,23.05
2018-07-17T16:13:15.376Z,22.85
2018-07-17T16:15:45.010Z,22.78
2018-07-17T16:18:13.820Z,22.83
2018-07-17T16:20:42.262Z,22.84
2018-07-17T16:23:10.734Z,22.77
2018-07-17T16:25:39.162Z,23.00
2018-07-17T16:28:07.313Z,22.96
2018-07-17T16:30:35.711Z,22.83
2018-07-17T16:33:04.129Z,22.86
2018-07-17T16:35:32.393Z,22.66
2018-07-17T16:38:00.656Z,22.59
2018-07-17T16:40:29.129Z,22.37
2018-07-17T16:42:57.513Z,22.35
2018-07-17T16:45:25.966Z,22.48
2018-07-17T16:47:55.516Z,22.15
2018-07-17T16:50:24.227Z,22.17
2018-07-17T16:52:52.634Z,22.10
2018-07-17T16:55:20.968Z,21.96
2018-07-17T16:57:49.686Z,21.83
2018-07-17T17:00:18.121Z,21.83
2018-07-17T17:02:46.498Z,21.81
2018-07-17T17:05:15.010Z,21.63
2018-07-17T17:07:43.172Z,21.60
2018-07-17T17:10:11.672Z,21.53
2018-07-17T17:12:40.134Z,21.41
2018-07-17T17:15:08.423Z,21.29
2018-07-17T17:17:36.787Z,21.24
2018-07-17T17:20:05.264Z,21.04
2018-07-17T17:22:33.548Z,21.08
2018-07-17T17:25:02.341Z,21.20
2018-07-17T17:27:31.206Z,21.04
2018-07-17T17:29:59.605Z,20.92
2018-07-17T17:32:28.096Z,20.81
2018-07-17T17:34:56.406Z,20.61
2018-07-17T17:37:26.850Z,20.61
2018-07-17T17:39:59.061Z,20.57
2018-07-17T17:42:27.317Z,20.54
2018-07-17T17:44:55.909Z,20.43
2018-07-17T17:47:24.230Z,20.39
2018-07-17T17:49:52.654Z,20.31
2018-07-17T17:52:21.000Z,20.22
2018-07-17T17:54:49.318Z,20.19
2018-07-17T17:57:17.946Z,20.14
2018-07-17T17:59:46.614Z,20.08
2018-07-17T18:02:14.974Z,20.04
2018-07-17T18:04:43.627Z,19.97
2018-07-17T18:07:12.615Z,19.85
2018-07-17T18:09:41.524Z,19.77
2018-07-17T18:12:09.950Z,19.63
2018-07-17T18:14:38.418Z,19.64
2018-07-17T18:17:06.621Z,19.61
2018-07-17T18:19:34.967Z,19.64
2018-07-17T18:22:03.271Z,19.50
2018-07-17T18:24:31.557Z,19.41
2018-07-17T18:26:59.945Z,19.34
2018-07-17T18:29:28.077Z,19.25
2018-07-17T18:31:56.270Z,19.31
2018-07-17T18:34:24.533Z,19.19
2018-07-17T18:36:52.863Z,19.24
2018-07-17T18:39:21.108Z,19.22
2018-07-17T18:41:49.748Z,19.14
2018-07-17T18:44:18.115Z,19.02
2018-07-17T18:46:46.618Z,19.07
2018-07-17T18:49:14.973Z,19.08
2018-07-17T18:51:43.718Z,19.08
2018-07-17T18:54:11.920Z,18.97
2018-07-17T18:56:40.220Z,18.82
2018-07-17T18:59:08.810Z,18.91
2018-07-17T19:01:36.969Z,18.85
2018-07-17T19:04:05.229Z,18.79
2018-07-17T19:06:33.502Z,18.74
2018-07-17T19:09:02.164Z,18.80
2018-07-17T19:11:30.612Z,18.79
2018-07-17T19:13:58.900Z,18.70
2018-07-17T19:16:27.151Z,18.63
2018-07-17T19:18:55.486Z,18.59
2018-07-17T19:21:23.734Z,18.53
2018-07-17T19:23:52.179Z,18.55
2018-07-17T19:26:20.407Z,18.58
2018-07-17T19:28:48.613Z,18.54
2018-07-17T19:31:16.901Z,18.45
2018-07-17T19:33:45.241Z,18.34
2018-07-17T19:36:13.430Z,18.22
2018-07-17T19:38:41.617Z,18.09
2018-07-17T19:41:10.024Z,18.00
2018-07-17T19:43:38.234Z,17.98
2018-07-17T19:46:06.542Z,17.93
2018-07-17T19:48:34.852Z,18.44
2018-07-17T19:51:03.234Z,18.29
2018-07-17T19:53:31.628Z,17.99
2018-07-17T19:55:59.989Z,18.41
2018-07-17T19:58:28.276Z,18.06
2018-07-17T20:00:56.582Z,17.83
2018-07-17T20:03:25.016Z,17.66
2018-07-17T20:05:53.266Z,17.50
2018-07-17T20:08:21.525Z,17.40
2018-07-17T20:10:49.970Z,17.39
2018-07-17T20:13:18.270Z,17.30
2018-07-17T20:15:46.660Z,17.32
2018-07-17T20:18:15.096Z,17.31
2018-07-17T20:20:43.385Z,17.30
2018-07-17T20:23:11.984Z,17.32
2018-07-17T20:25:40.212Z,17.45
2018-07-17T20:28:08.332Z,17.63
2018-07-17T20:30:36.660Z,17.59
2018-07-17T20:33:05.080Z,17.52
2018-07-17T20:35:33.465Z,17.49
2018-07-17T20:38:01.803Z,17.44
2018-07-17T20:40:30.335Z,17.42
2018-07-17T20:42:58.541Z,17.43
2018-07-17T20:45:26.885Z,17.43
2018-07-17T20:47:55.193Z,17.42
2018-07-17T20:50:23.566Z,17.42
2018-07-17T20:52:51.983Z,17.40
2018-07-17T20:55:20.366Z,17.41
2018-07-17T20:57:48.661Z,17.36
2018-07-17T21:00:16.950Z,17.36
2018-07-17T21:02:45.132Z,17.31
2018-07-17T21:05:13.282Z,17.25
2018-07-17T21:07:41.438Z,17.22
2018-07-17T21:10:09.708Z,17.24
2018-07-17T21:12:37.841Z,17.20
2018-07-17T21:15:06.140Z,17.18
2018-07-17T21:17:34.298Z,17.15
2018-07-17T21:20:02.551Z,17.14
2018-07-17T21:22:30.882Z,17.08
2018-07-17T21:24:59.116Z,17.09
2018-07-17T21:27:27.264Z,17.12
2018-07-17T21:29:55.669Z,17.13
2018-07-17T21:32:23.906Z,17.10
2018-07-17T21:34:51.902Z,17.04
2018-07-17T21:37:20.057Z,17.00
2018-07-17T21:39:48.265Z,16.87
2018-07-17T21:42:16.275Z,16.79
2018-07-17T21:44:44.473Z,16.68
2018-07-17T21:47:12.698Z,16.59
2018-07-17T21:49:40.887Z,16.49
2018-07-17T21:52:08.980Z,16.49
2018-07-17T21:54:37.113Z,16.49
2018-07-17T21:57:05.562Z,16.47
2018-07-17T21:59:33.692Z,16.50
2018-07-17T22:02:02.100Z,16.53
2018-07-17T22:04:30.366Z,16.50
2018-07-17T22:06:58.848Z,16.52
2018-07-17T22:09:27.191Z,16.51
2018-07-17T22:11:55.410Z,16.52
2018-07-17T22:14:23.637Z,16.57
2018-07-17T22:16:51.891Z,16.62
2018-07-17T22:19:19.992Z,16.65
2018-07-17T22:21:48.152Z,16.67
2018-07-17T22:24:16.399Z,16.68
2018-07-17T22:26:44.564Z,16.70
2018-07-17T22:29:12.662Z,16.74
2018-07-17T22:31:40.787Z,16.74
2018-07-17T22:34:08.934Z,16.75
2018-07-17T22:36:37.240Z,16.78
2018-07-17T22:39:07.593Z,16.78
2018-07-17T22:41:35.760Z,16.81
2018-07-17T22:44:03.949Z,16.84
2018-07-17T22:46:32.054Z,16.86
2018-07-17T22:49:00.257Z,16.89
2018-07-17T22:51:28.388Z,16.88
2018-07-17T22:53:56.481Z,16.88
2018-07-17T22:56:24.554Z,16.86
2018-07-17T22:58:52.666Z,16.90
2018-07-17T23:01:20.793Z,16.87
2018-07-17T23:03:49.028Z,16.87
2018-07-17T23:06:17.208Z,16.86
2018-07-17T23:08:45.387Z,16.87
2018-07-17T23:11:13.425Z,16.85
2018-07-17T23:13:41.418Z,16.78
2018-07-17T23:16:09.485Z,16.77
2018-07-17T23:18:37.572Z,16.77
2018-07-17T23:21:05.686Z,16.74
2018-07-17T23:23:33.879Z,16.70
2018-07-17T23:26:01.907Z,16.66
2018-07-17T23:28:29.999Z,16.61
2018-07-17T23:30:58.156Z,16.60
2018-07-17T23:33:26.318Z,16.56
2018-07-17T23:35:54.401Z,16.46
2018-07-17T23:38:22.560Z,16.34
2018-07-17T23:40:50.597Z,16.28
2018-07-17T23:43:18.644Z,16.22
2018-07-17T23:45:46.769Z,16.12
2018-07-17T23:48:14.759Z,16.06
2018-07-17T23:50:42.848Z,16.00
2018-07-17T23:53:10.971Z,15.97
2018-07-17T23:55:39.052Z,15.95
2018-07-17T23:58:07.115Z,15.93
